sensor_id;sensor_type;location;lat;lon;timestamp;P1;durP1;ratioP1;P2;durP2;ratioP2
33830;SDS011;20137;48.834;8.732;2022-08-07T00:01:50;4.28;;;0.80;;
33830;SDS011;20137;48.834;8.732;2022-08-07T00:04:16;1.10;;;0.73;;
33830;SDS011;20137;48.834;8.732;2022-08-07T00:06:41;3.67;;;1.40;;
33830;SDS011;20137;48.834;8.732;2022-08-07T00:09:07;7.88;;;3.92;;
33830;SDS011;20137;48.834;8.732;2022-08-07T00:11:33;7.00;;;2.55;;
33830;SDS011;20137;48.834;8.732;2022-08-07T00:13:59;4.72;;;2.42;;
33830;SDS011;20137;48.834;8.732;2022-08-07T00:16:25;3.67;;;2.33;;
33830;SDS011;20137;48.834;8.732;2022-08-07T00:18:50;5.03;;;1.42;;
33830;SDS011;20137;48.834;8.732;2022-08-07T00:21:16;7.60;;;2.50;;
33830;SDS011;20137;48.834;8.732;2022-08-07T00:23:42;4.05;;;1.92;;
33830;SDS011;20137;48.834;8.732;2022-08-07T00:26:10;0.75;;;0.70;;
33830;SDS011;20137;48.834;8.732;2022-08-07T00:28:37;3.30;;;1.10;;
33830;SDS011;20137;48.834;8.732;2022-08-07T00:31:04;5.68;;;0.98;;
33830;SDS011;20137;48.834;8.732;2022-08-07T00:33:33;3.13;;;1.00;;
33830;SDS011;20137;48.834;8.732;2022-08-07T00:36:01;7.25;;;4.20;;
33830;SDS011;20137;48.834;8.732;2022-08-07T00:38:28;2.38;;;0.82;;
33830;SDS011;20137;48.834;8.732;2022-08-07T00:40:53;4.28;;;2.20;;
33830;SDS011;20137;48.834;8.732;2022-08-07T00:43:19;2.72;;;1.52;;
33830;SDS011;20137;48.834;8.732;2022-08-07T00:45:45;2.33;;;0.63;;
33830;SDS011;20137;48.834;8.732;2022-08-07T00:48:10;2.17;;;0.90;;
33830;SDS011;20137;48.834;8.732;2022-08-07T00:50:37;4.70;;;1.60;;
33830;SDS011;20137;48.834;8.732;2022-08-07T00:53:04;2.53;;;1.80;;
33830;SDS011;20137;48.834;8.732;2022-08-07T00:55:29;12.45;;;6.93;;
33830;SDS011;20137;48.834;8.732;2022-08-07T00:57:56;11.75;;;6.15;;
33830;SDS011;20137;48.834;8.732;2022-08-07T01:00:22;5.53;;;3.20;;
33830;SDS011;20137;48.834;8.732;2022-08-07T01:02:48;2.00;;;1.70;;
33830;SDS011;20137;48.834;8.732;2022-08-07T01:05:14;1.65;;;0.80;;
33830;SDS011;20137;48.834;8.732;2022-08-07T01:07:41;3.92;;;2.47;;
33830;SDS011;20137;48.834;8.732;2022-08-07T01:10:07;2.65;;;0.88;;
33830;SDS011;20137;48.834;8.732;2022-08-07T01:12:34;1.05;;;0.70;;
33830;SDS011;20137;48.834;8.732;2022-08-07T01:15:01;2.75;;;0.60;;
33830;SDS011;20137;48.834;8.732;2022-08-07T01:17:33;1.38;;;0.70;;
33830;SDS011;20137;48.834;8.732;2022-08-07T01:20:01;0.80;;;0.60;;
33830;SDS011;20137;48.834;8.732;2022-08-07T01:22:36;1.55;;;0.63;;
33830;SDS011;20137;48.834;8.732;2022-08-07T01:25:02;3.25;;;0.60;;
33830;SDS011;20137;48.834;8.732;2022-08-07T01:27:29;1.67;;;0.70;;
33830;SDS011;20137;48.834;8.732;2022-08-07T01:29:55;3.25;;;0.70;;
33830;SDS011;20137;48.834;8.732;2022-08-07T01:32:21;3.38;;;0.73;;
33830;SDS011;20137;48.834;8.732;2022-08-07T01:34:47;1.30;;;0.90;;
33830;SDS011;20137;48.834;8.732;2022-08-07T01:37:14;1.52;;;0.70;;
33830;SDS011;20137;48.834;8.732;2022-08-07T01:39:41;3.40;;;0.60;;
33830;SDS011;20137;48.834;8.732;2022-08-07T01:42:08;1.85;;;0.73;;
33830;SDS011;20137;48.834;8.732;2022-08-07T01:44:34;3.13;;;0.50;;
33830;SDS011;20137;48.834;8.732;2022-08-07T01:47:00;1.73;;;0.90;;
33830;SDS011;20137;48.834;8.732;2022-08-07T01:49:26;4.40;;;1.10;;
33830;SDS011;20137;48.834;8.732;2022-08-07T01:51:51;1.52;;;0.55;;
33830;SDS011;20137;48.834;8.732;2022-08-07T01:54:19;5.55;;;2.75;;
33830;SDS011;20137;48.834;8.732;2022-08-07T01:56:59;5.05;;;2.13;;
33830;SDS011;20137;48.834;8.732;2022-08-07T01:59:35;4.22;;;3.05;;
33830;SDS011;20137;48.834;8.732;2022-08-07T02:02:09;2.45;;;1.30;;
33830;SDS011;20137;48.834;8.732;2022-08-07T02:04:40;1.75;;;1.20;;
33830;SDS011;20137;48.834;8.732;2022-08-07T02:07:11;2.72;;;0.82;;
33830;SDS011;20137;48.834;8.732;2022-08-07T02:09:40;3.90;;;1.17;;
33830;SDS011;20137;48.834;8.732;2022-08-07T02:12:09;1.83;;;1.00;;
33830;SDS011;20137;48.834;8.732;2022-08-07T02:14:43;3.70;;;0.70;;
33830;SDS011;20137;48.834;8.732;2022-08-07T02:17:13;2.40;;;0.88;;
33830;SDS011;20137;48.834;8.732;2022-08-07T02:19:43;2.65;;;0.80;;
33830;SDS011;20137;48.834;8.732;2022-08-07T02:22:12;3.05;;;0.73;;
33830;SDS011;20137;48.834;8.732;2022-08-07T02:24:40;1.48;;;0.63;;
33830;SDS011;20137;48.834;8.732;2022-08-07T02:27:08;3.50;;;0.85;;
33830;SDS011;20137;48.834;8.732;2022-08-07T02:29:36;2.22;;;0.57;;
33830;SDS011;20137;48.834;8.732;2022-08-07T02:32:03;1.65;;;0.65;;
33830;SDS011;20137;48.834;8.732;2022-08-07T02:34:31;2.63;;;0.70;;
33830;SDS011;20137;48.834;8.732;2022-08-07T02:36:57;1.90;;;0.60;;
33830;SDS011;20137;48.834;8.732;2022-08-07T02:39:27;2.45;;;0.65;;
33830;SDS011;20137;48.834;8.732;2022-08-07T02:41:55;2.45;;;0.70;;
33830;SDS011;20137;48.834;8.732;2022-08-07T02:44:22;1.60;;;0.70;;
33830;SDS011;20137;48.834;8.732;2022-08-07T02:46:49;1.08;;;0.73;;
33830;SDS011;20137;48.834;8.732;2022-08-07T02:49:18;1.63;;;0.70;;
33830;SDS011;20137;48.834;8.732;2022-08-07T02:51:44;2.72;;;0.80;;
33830;SDS011;20137;48.834;8.732;2022-08-07T02:54:12;2.88;;;0.85;;
33830;SDS011;20137;48.834;8.732;2022-08-07T02:56:39;1.75;;;0.80;;
33830;SDS011;20137;48.834;8.732;2022-08-07T02:59:08;2.20;;;0.50;;
33830;SDS011;20137;48.834;8.732;2022-08-07T03:01:36;4.70;;;0.70;;
33830;SDS011;20137;48.834;8.732;2022-08-07T03:04:08;2.60;;;0.80;;
33830;SDS011;20137;48.834;8.732;2022-08-07T03:06:34;2.80;;;0.70;;
33830;SDS011;20137;48.834;8.732;2022-08-07T03:09:02;2.17;;;0.70;;
33830;SDS011;20137;48.834;8.732;2022-08-07T03:11:29;1.17;;;0.80;;
33830;SDS011;20137;48.834;8.732;2022-08-07T03:13:56;1.38;;;0.68;;
33830;SDS011;20137;48.834;8.732;2022-08-07T03:16:23;3.80;;;0.57;;
33830;SDS011;20137;48.834;8.732;2022-08-07T03:18:49;3.45;;;0.90;;
33830;SDS011;20137;48.834;8.732;2022-08-07T03:21:16;1.95;;;0.65;;
33830;SDS011;20137;48.834;8.732;2022-08-07T03:23:42;2.03;;;0.80;;
33830;SDS011;20137;48.834;8.732;2022-08-07T03:26:09;2.63;;;0.60;;
33830;SDS011;20137;48.834;8.732;2022-08-07T03:28:40;1.60;;;0.80;;
33830;SDS011;20137;48.834;8.732;2022-08-07T03:31:07;1.83;;;0.70;;
33830;SDS011;20137;48.834;8.732;2022-08-07T03:33:43;4.25;;;1.10;;
33830;SDS011;20137;48.834;8.732;2022-08-07T03:36:13;1.80;;;0.95;;
33830;SDS011;20137;48.834;8.732;2022-08-07T03:38:40;1.92;;;0.80;;
33830;SDS011;20137;48.834;8.732;2022-08-07T03:41:08;4.82;;;0.82;;
33830;SDS011;20137;48.834;8.732;2022-08-07T03:43:35;1.83;;;0.80;;
33830;SDS011;20137;48.834;8.732;2022-08-07T03:46:02;1.65;;;0.90;;
33830;SDS011;20137;48.834;8.732;2022-08-07T03:48:33;2.38;;;0.85;;
33830;SDS011;20137;48.834;8.732;2022-08-07T03:51:00;2.13;;;0.85;;
33830;SDS011;20137;48.834;8.732;2022-08-07T03:53:27;3.42;;;0.80;;
33830;SDS011;20137;48.834;8.732;2022-08-07T03:55:54;2.13;;;0.90;;
33830;SDS011;20137;48.834;8.732;2022-08-07T03:58:21;3.33;;;1.02;;
33830;SDS011;20137;48.834;8.732;2022-08-07T04:00:48;2.97;;;0.85;;
33830;SDS011;20137;48.834;8.732;2022-08-07T04:03:16;2.60;;;0.88;;
33830;SDS011;20137;48.834;8.732;2022-08-07T04:05:42;2.05;;;0.70;;
33830;SDS011;20137;48.834;8.732;2022-08-07T04:08:09;4.53;;;1.05;;
33830;SDS011;20137;48.834;8.732;2022-08-07T04:10:36;1.38;;;0.80;;
33830;SDS011;20137;48.834;8.732;2022-08-07T04:13:03;3.33;;;1.00;;
33830;SDS011;20137;48.834;8.732;2022-08-07T04:15:31;3.47;;;1.10;;
33830;SDS011;20137;48.834;8.732;2022-08-07T04:17:57;2.65;;;0.95;;
33830;SDS011;20137;48.834;8.732;2022-08-07T04:20:24;3.63;;;1.08;;
33830;SDS011;20137;48.834;8.732;2022-08-07T04:22:50;1.88;;;0.80;;
33830;SDS011;20137;48.834;8.732;2022-08-07T04:25:17;2.60;;;1.00;;
33830;SDS011;20137;48.834;8.732;2022-08-07T04:27:43;1.40;;;0.93;;
33830;SDS011;20137;48.834;8.732;2022-08-07T04:30:10;3.90;;;0.85;;
33830;SDS011;20137;48.834;8.732;2022-08-07T04:32:36;9.40;;;1.27;;
33830;SDS011;20137;48.834;8.732;2022-08-07T04:35:03;1.88;;;0.93;;
33830;SDS011;20137;48.834;8.732;2022-08-07T04:37:31;3.75;;;1.05;;
33830;SDS011;20137;48.834;8.732;2022-08-07T04:39:57;1.17;;;0.80;;
33830;SDS011;20137;48.834;8.732;2022-08-07T04:42:23;3.95;;;0.90;;
33830;SDS011;20137;48.834;8.732;2022-08-07T04:44:53;2.60;;;0.82;;
33830;SDS011;20137;48.834;8.732;2022-08-07T04:50:34;3.63;;;1.20;;
33830;SDS011;20137;48.834;8.732;2022-08-07T04:53:20;2.20;;;1.20;;
33830;SDS011;20137;48.834;8.732;2022-08-07T04:55:58;4.28;;;1.00;;
33830;SDS011;20137;48.834;8.732;2022-08-07T04:58:35;2.40;;;1.23;;
33830;SDS011;20137;48.834;8.732;2022-08-07T05:01:14;2.03;;;0.80;;
33830;SDS011;20137;48.834;8.732;2022-08-07T05:03:50;2.78;;;0.98;;
33830;SDS011;20137;48.834;8.732;2022-08-07T05:06:46;4.35;;;1.60;;
33830;SDS011;20137;48.834;8.732;2022-08-07T05:09:28;2.20;;;0.88;;
33830;SDS011;20137;48.834;8.732;2022-08-07T05:12:22;2.47;;;1.00;;
33830;SDS011;20137;48.834;8.732;2022-08-07T05:15:06;1.67;;;1.00;;
33830;SDS011;20137;48.834;8.732;2022-08-07T05:17:47;1.48;;;1.00;;
33830;SDS011;20137;48.834;8.732;2022-08-07T05:20:16;1.23;;;1.10;;
33830;SDS011;20137;48.834;8.732;2022-08-07T05:22:48;1.30;;;0.80;;
33830;SDS011;20137;48.834;8.732;2022-08-07T05:25:16;0.73;;;0.70;;
33830;SDS011;20137;48.834;8.732;2022-08-07T05:27:44;2.95;;;0.93;;
33830;SDS011;20137;48.834;8.732;2022-08-07T05:30:10;3.65;;;1.10;;
33830;SDS011;20137;48.834;8.732;2022-08-07T05:32:37;4.13;;;0.90;;
33830;SDS011;20137;48.834;8.732;2022-08-07T05:35:05;1.33;;;0.80;;
33830;SDS011;20137;48.834;8.732;2022-08-07T05:37:33;2.38;;;1.10;;
33830;SDS011;20137;48.834;8.732;2022-08-07T05:39:59;3.00;;;1.20;;
33830;SDS011;20137;48.834;8.732;2022-08-07T05:42:26;4.45;;;1.40;;
33830;SDS011;20137;48.834;8.732;2022-08-07T05:44:51;2.92;;;1.30;;
33830;SDS011;20137;48.834;8.732;2022-08-07T05:47:19;2.85;;;1.30;;
33830;SDS011;20137;48.834;8.732;2022-08-07T05:49:48;2.65;;;1.40;;
33830;SDS011;20137;48.834;8.732;2022-08-07T05:52:18;1.95;;;1.60;;
33830;SDS011;20137;48.834;8.732;2022-08-07T05:54:44;3.75;;;2.10;;
33830;SDS011;20137;48.834;8.732;2022-08-07T05:57:10;3.85;;;1.58;;
33830;SDS011;20137;48.834;8.732;2022-08-07T05:59:39;5.38;;;2.42;;
33830;SDS011;20137;48.834;8.732;2022-08-07T06:02:06;4.22;;;2.60;;
33830;SDS011;20137;48.834;8.732;2022-08-07T06:04:36;3.35;;;2.47;;
33830;SDS011;20137;48.834;8.732;2022-08-07T06:07:05;5.47;;;2.40;;
33830;SDS011;20137;48.834;8.732;2022-08-07T06:09:32;3.05;;;2.17;;
33830;SDS011;20137;48.834;8.732;2022-08-07T06:11:58;3.75;;;2.40;;
33830;SDS011;20137;48.834;8.732;2022-08-07T06:14:24;4.15;;;2.40;;
33830;SDS011;20137;48.834;8.732;2022-08-07T06:16:50;4.60;;;2.67;;
33830;SDS011;20137;48.834;8.732;2022-08-07T06:19:19;4.18;;;2.25;;
33830;SDS011;20137;48.834;8.732;2022-08-07T06:21:45;3.72;;;2.40;;
33830;SDS011;20137;48.834;8.732;2022-08-07T06:24:11;4.45;;;2.80;;
33830;SDS011;20137;48.834;8.732;2022-08-07T06:26:40;5.43;;;2.85;;
33830;SDS011;20137;48.834;8.732;2022-08-07T06:29:06;3.63;;;2.67;;
33830;SDS011;20137;48.834;8.732;2022-08-07T06:31:33;3.00;;;2.30;;
33830;SDS011;20137;48.834;8.732;2022-08-07T06:33:59;4.20;;;3.13;;
33830;SDS011;20137;48.834;8.732;2022-08-07T06:36:25;5.50;;;2.80;;
33830;SDS011;20137;48.834;8.732;2022-08-07T06:38:51;4.65;;;2.33;;
33830;SDS011;20137;48.834;8.732;2022-08-07T06:41:20;8.25;;;2.72;;
33830;SDS011;20137;48.834;8.732;2022-08-07T06:43:50;6.88;;;2.95;;
33830;SDS011;20137;48.834;8.732;2022-08-07T06:46:17;4.30;;;2.60;;
33830;SDS011;20137;48.834;8.732;2022-08-07T06:48:43;4.88;;;2.40;;
33830;SDS011;20137;48.834;8.732;2022-08-07T06:51:09;4.82;;;2.95;;
33830;SDS011;20137;48.834;8.732;2022-08-07T06:53:40;6.80;;;3.05;;
33830;SDS011;20137;48.834;8.732;2022-08-07T06:56:08;2.88;;;2.58;;
33830;SDS011;20137;48.834;8.732;2022-08-07T06:58:36;5.13;;;3.10;;
33830;SDS011;20137;48.834;8.732;2022-08-07T07:01:05;3.60;;;2.80;;
33830;SDS011;20137;48.834;8.732;2022-08-07T07:03:33;5.43;;;3.08;;
33830;SDS011;20137;48.834;8.732;2022-08-07T07:06:01;7.55;;;2.72;;
33830;SDS011;20137;48.834;8.732;2022-08-07T07:08:28;3.05;;;2.60;;
33830;SDS011;20137;48.834;8.732;2022-08-07T07:10:54;4.50;;;2.70;;
33830;SDS011;20137;48.834;8.732;2022-08-07T07:13:40;4.93;;;2.65;;
33830;SDS011;20137;48.834;8.732;2022-08-07T07:16:12;3.88;;;2.60;;
33830;SDS011;20137;48.834;8.732;2022-08-07T07:18:49;5.07;;;2.42;;
33830;SDS011;20137;48.834;8.732;2022-08-07T07:21:23;4.80;;;2.35;;
33830;SDS011;20137;48.834;8.732;2022-08-07T07:23:53;4.25;;;2.72;;
33830;SDS011;20137;48.834;8.732;2022-08-07T07:26:21;5.35;;;2.50;;
33830;SDS011;20137;48.834;8.732;2022-08-07T07:28:54;3.40;;;2.50;;
33830;SDS011;20137;48.834;8.732;2022-08-07T07:31:28;3.95;;;2.50;;
33830;SDS011;20137;48.834;8.732;2022-08-07T07:33:58;4.80;;;2.30;;
33830;SDS011;20137;48.834;8.732;2022-08-07T07:36:30;5.13;;;2.65;;
33830;SDS011;20137;48.834;8.732;2022-08-07T07:38:58;6.47;;;2.50;;
33830;SDS011;20137;48.834;8.732;2022-08-07T07:41:26;4.53;;;2.53;;
33830;SDS011;20137;48.834;8.732;2022-08-07T07:43:53;3.72;;;2.28;;
33830;SDS011;20137;48.834;8.732;2022-08-07T07:46:21;3.42;;;2.30;;
33830;SDS011;20137;48.834;8.732;2022-08-07T07:48:47;4.70;;;2.20;;
33830;SDS011;20137;48.834;8.732;2022-08-07T07:51:16;5.38;;;2.15;;
33830;SDS011;20137;48.834;8.732;2022-08-07T07:53:43;2.60;;;2.15;;
33830;SDS011;20137;48.834;8.732;2022-08-07T07:56:10;4.78;;;2.42;;
33830;SDS011;20137;48.834;8.732;2022-08-07T07:58:38;4.15;;;2.10;;
33830;SDS011;20137;48.834;8.732;2022-08-07T08:01:05;3.05;;;1.80;;
33830;SDS011;20137;48.834;8.732;2022-08-07T08:03:33;3.72;;;2.22;;
33830;SDS011;20137;48.834;8.732;2022-08-07T08:06:01;3.33;;;1.90;;
33830;SDS011;20137;48.834;8.732;2022-08-07T08:08:28;3.05;;;1.80;;
33830;SDS011;20137;48.834;8.732;2022-08-07T08:10:57;2.63;;;2.00;;
33830;SDS011;20137;48.834;8.732;2022-08-07T08:13:24;3.55;;;1.70;;
33830;SDS011;20137;48.834;8.732;2022-08-07T08:15:51;3.72;;;1.90;;
33830;SDS011;20137;48.834;8.732;2022-08-07T08:18:18;3.35;;;1.70;;
33830;SDS011;20137;48.834;8.732;2022-08-07T08:20:46;4.40;;;1.85;;
33830;SDS011;20137;48.834;8.732;2022-08-07T08:23:12;2.78;;;1.85;;
33830;SDS011;20137;48.834;8.732;2022-08-07T08:26:00;3.88;;;1.45;;
33830;SDS011;20137;48.834;8.732;2022-08-07T08:28:37;4.25;;;2.13;;
33830;SDS011;20137;48.834;8.732;2022-08-07T08:31:06;5.07;;;1.55;;
33830;SDS011;20137;48.834;8.732;2022-08-07T08:33:35;2.13;;;1.73;;
33830;SDS011;20137;48.834;8.732;2022-08-07T08:36:06;2.63;;;1.90;;
33830;SDS011;20137;48.834;8.732;2022-08-07T08:38:38;2.28;;;1.60;;
33830;SDS011;20137;48.834;8.732;2022-08-07T08:43:50;4.10;;;1.55;;
33830;SDS011;20137;48.834;8.732;2022-08-07T08:46:27;2.17;;;1.52;;
33830;SDS011;20137;48.834;8.732;2022-08-07T08:49:19;3.35;;;1.40;;
33830;SDS011;20137;48.834;8.732;2022-08-07T08:56:45;4.05;;;1.52;;
33830;SDS011;20137;48.834;8.732;2022-08-07T08:59:16;1.40;;;1.10;;
33830;SDS011;20137;48.834;8.732;2022-08-07T09:07:10;2.17;;;1.27;;
33830;SDS011;20137;48.834;8.732;2022-08-07T09:15:35;1.35;;;1.20;;
33830;SDS011;20137;48.834;8.732;2022-08-07T09:18:09;2.72;;;1.30;;
33830;SDS011;20137;48.834;8.732;2022-08-07T09:21:03;2.72;;;1.40;;
33830;SDS011;20137;48.834;8.732;2022-08-07T09:23:54;1.75;;;1.10;;
33830;SDS011;20137;48.834;8.732;2022-08-07T09:26:45;2.35;;;1.30;;
33830;SDS011;20137;48.834;8.732;2022-08-07T09:29:31;2.20;;;1.30;;
33830;SDS011;20137;48.834;8.732;2022-08-07T09:35:10;3.85;;;1.30;;
33830;SDS011;20137;48.834;8.732;2022-08-07T09:38:05;2.13;;;1.40;;
33830;SDS011;20137;48.834;8.732;2022-08-07T09:40:49;5.10;;;1.80;;
33830;SDS011;20137;48.834;8.732;2022-08-07T09:48:41;3.40;;;1.60;;
33830;SDS011;20137;48.834;8.732;2022-08-07T09:51:39;3.20;;;1.75;;
33830;SDS011;20137;48.834;8.732;2022-08-07T09:54:16;2.35;;;1.90;;
33830;SDS011;20137;48.834;8.732;2022-08-07T10:05:02;5.80;;;2.08;;
33830;SDS011;20137;48.834;8.732;2022-08-07T10:14:03;3.28;;;1.08;;
33830;SDS011;20137;48.834;8.732;2022-08-07T10:24:52;1.88;;;0.95;;
33830;SDS011;20137;48.834;8.732;2022-08-07T10:30:17;0.95;;;0.80;;
33830;SDS011;20137;48.834;8.732;2022-08-07T10:36:02;2.58;;;0.70;;
33830;SDS011;20137;48.834;8.732;2022-08-07T10:38:55;3.45;;;0.88;;
33830;SDS011;20137;48.834;8.732;2022-08-07T10:41:34;3.03;;;1.00;;
33830;SDS011;20137;48.834;8.732;2022-08-07T10:44:17;3.90;;;0.80;;
33830;SDS011;20137;48.834;8.732;2022-08-07T10:46:54;1.00;;;0.70;;
33830;SDS011;20137;48.834;8.732;2022-08-07T10:49:36;2.65;;;0.73;;
33830;SDS011;20137;48.834;8.732;2022-08-07T10:54:53;2.63;;;1.05;;
33830;SDS011;20137;48.834;8.732;2022-08-07T11:00:06;0.70;;;0.70;;
33830;SDS011;20137;48.834;8.732;2022-08-07T11:02:42;3.90;;;0.80;;
33830;SDS011;20137;48.834;8.732;2022-08-07T11:13:58;2.92;;;0.60;;
33830;SDS011;20137;48.834;8.732;2022-08-07T11:16:48;2.10;;;0.70;;
33830;SDS011;20137;48.834;8.732;2022-08-07T11:19:29;1.13;;;0.80;;
33830;SDS011;20137;48.834;8.732;2022-08-07T11:22:09;1.67;;;0.70;;
33830;SDS011;20137;48.834;8.732;2022-08-07T11:24:44;1.85;;;0.70;;
33830;SDS011;20137;48.834;8.732;2022-08-07T11:27:24;3.10;;;0.70;;
33830;SDS011;20137;48.834;8.732;2022-08-07T11:30:08;2.85;;;0.75;;
33830;SDS011;20137;48.834;8.732;2022-08-07T11:32:42;0.98;;;0.77;;
33830;SDS011;20137;48.834;8.732;2022-08-07T11:35:20;1.40;;;0.65;;
33830;SDS011;20137;48.834;8.732;2022-08-07T11:49:29;2.67;;;0.77;;
33830;SDS011;20137;48.834;8.732;2022-08-07T12:03:32;1.33;;;0.60;;
33830;SDS011;20137;48.834;8.732;2022-08-07T12:06:09;4.28;;;0.80;;
33830;SDS011;20137;48.834;8.732;2022-08-07T12:08:52;1.38;;;0.80;;
33830;SDS011;20137;48.834;8.732;2022-08-07T12:11:26;1.67;;;0.70;;
33830;SDS011;20137;48.834;8.732;2022-08-07T12:14:22;2.22;;;0.82;;
33830;SDS011;20137;48.834;8.732;2022-08-07T12:16:59;0.93;;;0.70;;
33830;SDS011;20137;48.834;8.732;2022-08-07T12:22:21;3.55;;;0.98;;
33830;SDS011;20137;48.834;8.732;2022-08-07T12:27:59;1.35;;;0.60;;
33830;SDS011;20137;48.834;8.732;2022-08-07T12:33:01;2.83;;;0.70;;
33830;SDS011;20137;48.834;8.732;2022-08-07T12:35:30;3.05;;;0.80;;
33830;SDS011;20137;48.834;8.732;2022-08-07T12:37:57;1.88;;;0.70;;
33830;SDS011;20137;48.834;8.732;2022-08-07T12:40:25;1.15;;;0.50;;
33830;SDS011;20137;48.834;8.732;2022-08-07T12:42:55;1.30;;;0.70;;
33830;SDS011;20137;48.834;8.732;2022-08-07T12:45:38;2.38;;;0.82;;
33830;SDS011;20137;48.834;8.732;2022-08-07T12:51:18;0.75;;;0.70;;
33830;SDS011;20137;48.834;8.732;2022-08-07T12:53:56;1.70;;;0.88;;
33830;SDS011;20137;48.834;8.732;2022-08-07T12:59:01;2.33;;;0.70;;
33830;SDS011;20137;48.834;8.732;2022-08-07T13:01:47;3.30;;;0.90;;
33830;SDS011;20137;48.834;8.732;2022-08-07T13:07:38;4.25;;;0.80;;
33830;SDS011;20137;48.834;8.732;2022-08-07T13:10:13;0.82;;;0.55;;
33830;SDS011;20137;48.834;8.732;2022-08-07T13:13:01;0.80;;;0.50;;
33830;SDS011;20137;48.834;8.732;2022-08-07T13:18:44;3.80;;;0.80;;
33830;SDS011;20137;48.834;8.732;2022-08-07T13:21:22;0.93;;;0.60;;
33830;SDS011;20137;48.834;8.732;2022-08-07T13:23:58;3.13;;;0.70;;
33830;SDS011;20137;48.834;8.732;2022-08-07T13:26:32;1.08;;;0.65;;
33830;SDS011;20137;48.834;8.732;2022-08-07T13:29:09;1.33;;;0.80;;
33830;SDS011;20137;48.834;8.732;2022-08-07T13:34:34;2.08;;;0.73;;
33830;SDS011;20137;48.834;8.732;2022-08-07T13:37:26;0.77;;;0.55;;
33830;SDS011;20137;48.834;8.732;2022-08-07T13:40:29;1.40;;;0.80;;
33830;SDS011;20137;48.834;8.732;2022-08-07T13:43:00;2.38;;;0.95;;
33830;SDS011;20137;48.834;8.732;2022-08-07T13:45:29;2.92;;;0.70;;
33830;SDS011;20137;48.834;8.732;2022-08-07T13:47:58;1.23;;;0.57;;
33830;SDS011;20137;48.834;8.732;2022-08-07T13:50:26;2.25;;;0.70;;
33830;SDS011;20137;48.834;8.732;2022-08-07T13:52:54;1.85;;;0.70;;
33830;SDS011;20137;48.834;8.732;2022-08-07T13:55:22;2.13;;;0.75;;
33830;SDS011;20137;48.834;8.732;2022-08-07T13:57:51;2.42;;;0.50;;
33830;SDS011;20137;48.834;8.732;2022-08-07T14:00:29;1.20;;;0.75;;
33830;SDS011;20137;48.834;8.732;2022-08-07T14:03:01;2.33;;;0.98;;
33830;SDS011;20137;48.834;8.732;2022-08-07T14:05:29;3.25;;;0.85;;
33830;SDS011;20137;48.834;8.732;2022-08-07T14:07:55;2.40;;;0.82;;
33830;SDS011;20137;48.834;8.732;2022-08-07T14:10:23;2.20;;;0.80;;
33830;SDS011;20137;48.834;8.732;2022-08-07T14:12:56;3.50;;;0.70;;
33830;SDS011;20137;48.834;8.732;2022-08-07T14:15:33;1.30;;;0.70;;
33830;SDS011;20137;48.834;8.732;2022-08-07T14:18:04;1.98;;;0.80;;
33830;SDS011;20137;48.834;8.732;2022-08-07T14:20:38;0.95;;;0.70;;
33830;SDS011;20137;48.834;8.732;2022-08-07T14:23:20;1.23;;;0.68;;
33830;SDS011;20137;48.834;8.732;2022-08-07T14:25:54;3.28;;;0.63;;
33830;SDS011;20137;48.834;8.732;2022-08-07T14:28:24;2.97;;;0.80;;
33830;SDS011;20137;48.834;8.732;2022-08-07T14:30:53;4.50;;;0.98;;
33830;SDS011;20137;48.834;8.732;2022-08-07T14:33:20;1.75;;;0.60;;
33830;SDS011;20137;48.834;8.732;2022-08-07T14:35:52;2.55;;;0.50;;
33830;SDS011;20137;48.834;8.732;2022-08-07T14:38:23;1.02;;;0.47;;
33830;SDS011;20137;48.834;8.732;2022-08-07T14:40:58;1.33;;;0.57;;
33830;SDS011;20137;48.834;8.732;2022-08-07T14:43:32;1.58;;;0.70;;
33830;SDS011;20137;48.834;8.732;2022-08-07T14:46:02;1.33;;;0.77;;
33830;SDS011;20137;48.834;8.732;2022-08-07T14:48:33;1.92;;;0.65;;
33830;SDS011;20137;48.834;8.732;2022-08-07T14:51:08;0.90;;;0.70;;
33830;SDS011;20137;48.834;8.732;2022-08-07T14:53:41;3.20;;;0.93;;
33830;SDS011;20137;48.834;8.732;2022-08-07T14:56:09;4.65;;;0.70;;
33830;SDS011;20137;48.834;8.732;2022-08-07T14:58:37;1.92;;;0.70;;
33830;SDS011;20137;48.834;8.732;2022-08-07T15:01:08;1.60;;;0.85;;
33830;SDS011;20137;48.834;8.732;2022-08-07T15:03:36;0.90;;;0.65;;
33830;SDS011;20137;48.834;8.732;2022-08-07T15:06:04;1.85;;;0.57;;
33830;SDS011;20137;48.834;8.732;2022-08-07T15:08:33;1.48;;;0.60;;
33830;SDS011;20137;48.834;8.732;2022-08-07T15:11:10;3.10;;;0.70;;
33830;SDS011;20137;48.834;8.732;2022-08-07T15:13:46;1.38;;;0.60;;
33830;SDS011;20137;48.834;8.732;2022-08-07T15:16:15;0.98;;;0.80;;
33830;SDS011;20137;48.834;8.732;2022-08-07T15:18:48;2.85;;;0.70;;
33830;SDS011;20137;48.834;8.732;2022-08-07T15:23:45;0.85;;;0.70;;
33830;SDS011;20137;48.834;8.732;2022-08-07T15:26:13;0.60;;;0.50;;
33830;SDS011;20137;48.834;8.732;2022-08-07T15:28:43;1.45;;;0.70;;
33830;SDS011;20137;48.834;8.732;2022-08-07T15:31:11;1.20;;;0.75;;
33830;SDS011;20137;48.834;8.732;2022-08-07T15:33:39;0.80;;;0.70;;
33830;SDS011;20137;48.834;8.732;2022-08-07T15:36:06;1.95;;;0.70;;
33830;SDS011;20137;48.834;8.732;2022-08-07T15:38:34;2.08;;;0.50;;
33830;SDS011;20137;48.834;8.732;2022-08-07T15:41:11;2.05;;;0.70;;
33830;SDS011;20137;48.834;8.732;2022-08-07T15:43:41;5.03;;;0.82;;
33830;SDS011;20137;48.834;8.732;2022-08-07T15:46:19;1.05;;;0.60;;
33830;SDS011;20137;48.834;8.732;2022-08-07T15:48:47;0.50;;;0.50;;
33830;SDS011;20137;48.834;8.732;2022-08-07T15:51:14;1.50;;;0.52;;
33830;SDS011;20137;48.834;8.732;2022-08-07T15:53:46;3.42;;;0.73;;
33830;SDS011;20137;48.834;8.732;2022-08-07T15:56:15;0.98;;;0.52;;
33830;SDS011;20137;48.834;8.732;2022-08-07T15:58:49;0.60;;;0.60;;
33830;SDS011;20137;48.834;8.732;2022-08-07T16:04:02;0.65;;;0.50;;
33830;SDS011;20137;48.834;8.732;2022-08-07T16:06:34;2.08;;;0.80;;
33830;SDS011;20137;48.834;8.732;2022-08-07T16:09:05;0.80;;;0.50;;
33830;SDS011;20137;48.834;8.732;2022-08-07T16:11:43;0.85;;;0.65;;
33830;SDS011;20137;48.834;8.732;2022-08-07T16:14:39;0.90;;;0.60;;
33830;SDS011;20137;48.834;8.732;2022-08-07T16:17:27;1.65;;;0.70;;
33830;SDS011;20137;48.834;8.732;2022-08-07T16:26:04;1.27;;;0.75;;
33830;SDS011;20137;48.834;8.732;2022-08-07T16:34:40;1.98;;;0.80;;
33830;SDS011;20137;48.834;8.732;2022-08-07T16:39:53;0.98;;;0.80;;
33830;SDS011;20137;48.834;8.732;2022-08-07T16:51:27;0.60;;;0.60;;
33830;SDS011;20137;48.834;8.732;2022-08-07T17:02:19;4.07;;;0.88;;
33830;SDS011;20137;48.834;8.732;2022-08-07T17:05:17;2.08;;;0.60;;
33830;SDS011;20137;48.834;8.732;2022-08-07T17:07:59;1.65;;;0.80;;
33830;SDS011;20137;48.834;8.732;2022-08-07T17:13:28;1.10;;;0.65;;
33830;SDS011;20137;48.834;8.732;2022-08-07T17:16:19;1.95;;;0.60;;
33830;SDS011;20137;48.834;8.732;2022-08-07T17:19:03;0.85;;;0.60;;
33830;SDS011;20137;48.834;8.732;2022-08-07T17:21:45;1.40;;;0.68;;
33830;SDS011;20137;48.834;8.732;2022-08-07T17:29:29;0.85;;;0.70;;
33830;SDS011;20137;48.834;8.732;2022-08-07T17:34:41;1.17;;;0.50;;
33830;SDS011;20137;48.834;8.732;2022-08-07T17:43:25;1.45;;;0.60;;
33830;SDS011;20137;48.834;8.732;2022-08-07T17:45:57;1.00;;;0.77;;
33830;SDS011;20137;48.834;8.732;2022-08-07T17:51:36;2.47;;;0.50;;
33830;SDS011;20137;48.834;8.732;2022-08-07T17:54:16;1.20;;;0.80;;
33830;SDS011;20137;48.834;8.732;2022-08-07T17:57:00;2.78;;;0.80;;
33830;SDS011;20137;48.834;8.732;2022-08-07T18:02:32;2.65;;;0.50;;
33830;SDS011;20137;48.834;8.732;2022-08-07T18:05:22;1.30;;;0.60;;
33830;SDS011;20137;48.834;8.732;2022-08-07T18:10:40;1.10;;;0.70;;
33830;SDS011;20137;48.834;8.732;2022-08-07T18:13:18;1.17;;;0.50;;
33830;SDS011;20137;48.834;8.732;2022-08-07T18:16:05;1.08;;;0.60;;
33830;SDS011;20137;48.834;8.732;2022-08-07T18:18:44;2.22;;;0.50;;